Time;durP1;ratioP1;P1;durP2;ratioP2;P2;SDS_P1;SDS_P2;PMS_P1;PMS_P2;Temp;Humidity;BMP_temperature;BMP_pressure;BME280_temperature;BME280_humidity;BME280_pressure;Samples;Min_cycle;Max_cycle;Signal;HPM_P1;HPM_P2
2023/06/01 00:01:01;;;;;;;;;;;;;;;-144.99;92.98;52268.72;5073438;28;19936;-78
2023/06/01 00:03:29;;;;;;;;;;;;;;;-144.99;93.63;52264.66;5078519;28;19936;-77
2023/06/01 00:05:56;;;;;;;;;;;;;;;-144.99;93.63;52307.47;5074156;28;19928;-78
2023/06/01 00:08:22;;;;;;;;;;;;;;;-144.99;93.60;52270.78;5092662;28;19951;-78
2023/06/01 00:10:49;;;;;;;;;;;;;;;-144.99;93.84;52285.03;5078079;28;19932;-77
2023/06/01 00:13:16;;;;;;;;;;;;;;;-144.99;93.37;52264.66;5086626;28;20335;-76
2023/06/01 00:15:44;;;;;;;;;;;;;;;-144.99;93.22;52264.66;5081414;28;20460;-79
2023/06/01 00:18:12;;;;;;;;;;;;;;;-144.99;93.52;52309.50;5080311;28;19994;-75
2023/06/01 00:20:39;;;;;;;;;;;;;;;-144.99;93.16;52301.34;5089686;28;20205;-76
2023/06/01 00:23:06;;;;;;;;;;;;;;;-144.99;92.98;52276.88;5086918;28;20305;-76
2023/06/01 00:25:33;;;;;;;;;;;;;;;-144.99;92.91;52287.06;5078716;28;19931;-76
2023/06/01 00:28:02;;;;;;;;;;;;;;;-144.99;92.96;52262.63;5075543;28;19931;-75
2023/06/01 00:30:28;;;;;;;;;;;;;;;-144.99;92.75;52268.72;5083645;28;20047;-78
2023/06/01 00:32:56;;;;;;;;;;;;;;;-144.99;92.45;52293.19;5093727;28;20018;-75
2023/06/01 00:35:23;;;;;;;;;;;;;;;-144.99;92.21;52268.72;5099744;28;19929;-78
2023/06/01 00:37:50;;;;;;;;;;;;;;;-144.99;92.65;52268.72;5097388;28;19928;-79
2023/06/01 00:40:17;;;;;;;;;;;;;;;-144.99;92.50;52264.66;5089128;28;20436;-77
2023/06/01 00:42:43;;;;;;;;;;;;;;;-144.99;92.66;52252.44;5084755;28;20003;-78
2023/06/01 00:45:10;;;;;;;;;;;;;;;-144.99;92.30;52285.03;5083037;28;19954;-76
2023/06/01 00:47:40;;;;;;;;;;;;;;;-144.99;92.10;52258.53;5088992;28;19924;-77
2023/06/01 00:50:08;;;;;;;;;;;;;;;-144.99;92.07;52256.50;5089424;28;20451;-76
2023/06/01 00:52:36;;;;;;;;;;;;;;;-144.99;92.02;52248.34;5085994;28;19982;-78
2023/06/01 00:55:03;;;;;;;;;;;;;;;-144.99;92.26;52297.25;5088799;28;19967;-76
2023/06/01 00:57:31;;;;;;;;;;;;;;;-144.99;91.70;52276.88;5087480;28;20050;-77
2023/06/01 00:59:58;;;;;;;;;;;;;;;-144.99;91.82;52250.38;5081094;28;20027;-77
2023/06/01 01:02:25;;;;;;;;;;;;;;;-144.99;92.33;52278.91;5079268;28;20349;-75
2023/06/01 01:04:52;;;;;;;;;;;;;;;-144.99;91.33;52280.97;5080276;28;19924;-76
2023/06/01 01:07:26;;;;;;;;;;;;;;;-144.99;91.19;52280.97;5082421;28;19972;-77
2023/06/01 01:09:57;;;;;;;;;;;;;;;-144.99;91.09;52280.97;5087679;28;20527;-78
2023/06/01 01:12:27;;;;;;;;;;;;;;;-144.99;91.26;52240.19;5084257;28;20014;-76
2023/06/01 01:14:59;;;;;;;;;;;;;;;-144.99;90.77;52244.28;5075016;28;19928;-76
2023/06/01 01:17:30;;;;;;;;;;;;;;;-144.99;92.47;52291.16;5081222;28;20397;-77
2023/06/01 01:20:05;;;;;;;;;;;;;;;-144.99;92.76;52293.19;5083186;28;19968;-74
2023/06/01 01:22:42;;;;;;;;;;;;;;;-144.99;92.98;52260.56;5081951;27;20170;-77
2023/06/01 01:25:21;;;;;;;;;;;;;;;-144.99;91.85;52248.34;5081616;28;19940;-77
2023/06/01 01:27:56;;;;;;;;;;;;;;;-144.99;90.86;52315.59;5086293;28;19920;-76
2023/06/01 01:30:27;;;;;;;;;;;;;;;-144.99;90.77;52256.50;5084788;28;20404;-77
2023/06/01 01:32:55;;;;;;;;;;;;;;;-144.99;90.88;52278.91;5076919;28;20283;-75
2023/06/01 01:35:23;;;;;;;;;;;;;;;-144.99;91.37;52317.66;5086453;28;19924;-76
2023/06/01 01:37:53;;;;;;;;;;;;;;;-144.99;91.53;52256.50;5080898;28;19924;-77
2023/06/01 01:40:20;;;;;;;;;;;;;;;-144.99;91.46;52303.38;5084245;28;19932;-75
2023/06/01 01:42:47;;;;;;;;;;;;;;;-144.99;91.25;52266.69;5082569;28;19928;-77
2023/06/01 01:45:15;;;;;;;;;;;;;;;-144.99;91.35;52333.94;5075587;28;19967;-77
2023/06/01 01:47:47;;;;;;;;;;;;;;;-144.99;91.35;52303.38;5075101;28;19928;-76
2023/06/01 01:50:16;;;;;;;;;;;;;;;-144.99;91.83;52268.72;5072053;28;19928;-76
2023/06/01 01:52:43;;;;;;;;;;;;;;;-144.99;91.16;52258.53;5080207;28;19931;-74
2023/06/01 01:55:11;;;;;;;;;;;;;;;-144.99;91.07;52276.88;5084227;28;19928;-74
2023/06/01 01:57:38;;;;;;;;;;;;;;;-144.99;91.65;52301.34;5087009;28;19950;-75
2023/06/01 02:00:07;;;;;;;;;;;;;;;-144.99;91.25;52293.19;5086132;28;19924;-76
2023/06/01 02:02:34;;;;;;;;;;;;;;;-144.99;90.86;52278.91;5081052;28;20328;-76
2023/06/01 02:05:03;;;;;;;;;;;;;;;-144.99;90.80;52303.38;5083758;28;19932;-75
2023/06/01 02:07:30;;;;;;;;;;;;;;;-144.99;90.72;52285.03;5080143;28;20020;-76
2023/06/01 02:09:57;;;;;;;;;;;;;;;-144.99;90.20;52297.25;5089490;28;20069;-75
2023/06/01 02:12:23;;;;;;;;;;;;;;;-144.99;90.48;52317.66;5080600;28;20045;-77
2023/06/01 02:14:50;;;;;;;;;;;;;;;-144.99;90.26;52295.22;5075628;28;19929;-77
2023/06/01 02:17:17;;;;;;;;;;;;;;;-144.99;90.33;52297.25;5088007;28;19924;-77
2023/06/01 02:19:44;;;;;;;;;;;;;;;-144.99;90.37;52272.81;5087024;28;19928;-77
2023/06/01 02:22:12;;;;;;;;;;;;;;;-144.99;90.22;52268.72;5078231;28;20363;-75
2023/06/01 02:24:38;;;;;;;;;;;;;;;-144.99;90.23;52317.66;5082442;28;19928;-77
2023/06/01 02:27:05;;;;;;;;;;;;;;;-144.99;90.61;52248.34;5081854;28;19927;-77
2023/06/01 02:29:32;;;;;;;;;;;;;;;-144.99;90.74;52240.19;5104511;28;19962;-77
2023/06/01 02:31:58;;;;;;;;;;;;;;;-144.99;90.56;52331.91;5106574;28;19939;-74
2023/06/01 02:34:25;;;;;;;;;;;;;;;-144.99;90.31;52276.88;5092879;28;19940;-77
2023/06/01 02:36:55;;;;;;;;;;;;;;;-144.99;90.96;52313.56;5075501;28;20035;-75
2023/06/01 02:39:23;;;;;;;;;;;;;;;-144.99;90.46;52305.41;5083421;28;19932;-76
2023/06/01 02:41:50;;;;;;;;;;;;;;;-144.99;90.63;52272.81;5083297;28;19955;-76
2023/06/01 02:44:17;;;;;;;;;;;;;;;-144.99;90.68;52250.38;5067826;28;20024;-75
2023/06/01 02:46:43;;;;;;;;;;;;;;;-144.99;90.54;52280.97;5076533;28;20420;-73
2023/06/01 02:49:10;;;;;;;;;;;;;;;-144.99;90.75;52283.00;5084497;28;19928;-75
2023/06/01 02:51:37;;;;;;;;;;;;;;;-144.99;90.65;52278.91;5082238;28;19938;-75
2023/06/01 02:54:03;;;;;;;;;;;;;;;-144.99;90.57;52268.72;5083669;28;19928;-77
2023/06/01 02:56:31;;;;;;;;;;;;;;;-144.99;90.88;52272.81;5086733;28;19924;-79
2023/06/01 02:58:58;;;;;;;;;;;;;;;-144.99;90.86;52303.38;5077946;28;19934;-79
2023/06/01 03:01:26;;;;;;;;;;;;;;;-144.99;91.07;52285.03;5079346;28;20120;-78
2023/06/01 03:03:52;;;;;;;;;;;;;;;-144.99;91.21;52317.66;5086517;28;20018;-77
2023/06/01 03:06:21;;;;;;;;;;;;;;;-144.99;91.18;52285.03;5086293;28;19924;-76
2023/06/01 03:08:48;;;;;;;;;;;;;;;-144.99;91.21;52327.84;5079034;28;20007;-76
2023/06/01 03:11:14;;;;;;;;;;;;;;;-144.99;91.23;52256.50;5071911;28;19924;-76
2023/06/01 03:13:42;;;;;;;;;;;;;;;-144.99;91.01;52252.44;5078301;28;20035;-79
2023/06/01 03:16:09;;;;;;;;;;;;;;;-144.99;90.97;52276.88;5085938;28;20018;-77
2023/06/01 03:18:36;;;;;;;;;;;;;;;-144.99;91.14;52268.72;5084572;28;19946;-79
2023/06/01 03:21:03;;;;;;;;;;;;;;;-144.99;91.26;52289.13;5082800;28;20015;-79
2023/06/01 03:23:30;;;;;;;;;;;;;;;-144.99;91.04;52289.13;5078116;28;20315;-79
2023/06/01 03:25:57;;;;;;;;;;;;;;;-144.99;91.06;52268.72;5087676;28;19985;-76
2023/06/01 03:28:23;;;;;;;;;;;;;;;-144.99;91.28;52285.03;5070462;28;19983;-75
2023/06/01 03:30:52;;;;;;;;;;;;;;;-144.99;91.93;52301.34;5078064;28;19924;-77
2023/06/01 03:33:18;;;;;;;;;;;;;;;-144.99;92.12;52260.56;5083896;28;19924;-76
2023/06/01 03:35:45;;;;;;;;;;;;;;;-144.99;92.32;52305.41;5079838;28;19975;-75
2023/06/01 03:38:12;;;;;;;;;;;;;;;-144.99;92.32;52293.19;5082322;28;19963;-75
2023/06/01 03:40:38;;;;;;;;;;;;;;;-144.99;92.38;52293.19;5087642;28;19924;-76
2023/06/01 03:43:05;;;;;;;;;;;;;;;-144.99;92.01;52309.50;5082501;28;19959;-76
2023/06/01 03:45:32;;;;;;;;;;;;;;;-144.99;92.49;52301.34;5074482;28;19928;-75
2023/06/01 03:48:00;;;;;;;;;;;;;;;-144.99;91.42;52264.66;5077185;28;20657;-74
2023/06/01 03:50:27;;;;;;;;;;;;;;;-144.99;90.83;52285.03;5078873;28;19924;-75
2023/06/01 03:52:53;;;;;;;;;;;;;;;-144.99;91.26;52309.50;5086736;28;19935;-75
2023/06/01 03:55:20;;;;;;;;;;;;;;;-144.99;91.40;52309.50;5077945;28;19932;-76
2023/06/01 03:57:47;;;;;;;;;;;;;;;-144.99;91.67;52301.34;5078084;28;19924;-76
2023/06/01 04:00:20;;;;;;;;;;;;;;;-144.99;91.02;52260.56;5073598;28;19991;-76
2023/06/01 04:02:52;;;;;;;;;;;;;;;-144.99;90.93;52248.34;5081824;28;19936;-75
2023/06/01 04:05:20;;;;;;;;;;;;;;;-144.99;90.88;52293.19;5080458;28;20024;-77
2023/06/01 04:07:47;;;;;;;;;;;;;;;-144.99;91.82;52301.34;5080609;28;19930;-75
2023/06/01 04:10:16;;;;;;;;;;;;;;;-144.99;91.37;52329.88;5086637;28;20030;-77
2023/06/01 04:12:43;;;;;;;;;;;;;;;-144.99;90.83;52264.66;5084668;28;19958;-76
2023/06/01 04:15:10;;;;;;;;;;;;;;;-144.99;91.66;52260.56;5074950;28;20049;-74
2023/06/01 04:17:37;;;;;;;;;;;;;;;-144.99;90.32;52260.56;5078294;28;20030;-74
2023/06/01 04:20:06;;;;;;;;;;;;;;;-144.99;90.49;52287.06;5082802;28;19924;-76
2023/06/01 04:22:34;;;;;;;;;;;;;;;-144.99;90.73;52236.13;5082512;28;20421;-73
2023/06/01 04:25:00;;;;;;;;;;;;;;;-144.99;91.10;52321.72;5080355;28;20410;-77
2023/06/01 04:27:27;;;;;;;;;;;;;;;-144.99;89.90;52252.44;5077495;28;19924;-76
2023/06/01 04:29:54;;;;;;;;;;;;;;;-144.99;89.97;52289.13;5084156;28;20119;-77
2023/06/01 04:32:22;;;;;;;;;;;;;;;-144.99;89.13;52309.50;5082198;28;19932;-77
2023/06/01 04:34:49;;;;;;;;;;;;;;;-144.99;88.76;52309.50;5082996;28;19924;-77
2023/06/01 04:37:20;;;;;;;;;;;;;;;-144.99;89.04;52319.69;5077791;28;19924;-79
2023/06/01 04:39:50;;;;;;;;;;;;;;;-144.99;88.94;52325.81;5076464;28;19924;-77
2023/06/01 04:42:18;;;;;;;;;;;;;;;-144.99;89.21;52276.88;5078403;28;19934;-78
2023/06/01 04:44:49;;;;;;;;;;;;;;;-144.99;89.32;52293.19;5071913;28;19924;-79
2023/06/01 04:47:16;;;;;;;;;;;;;;;-144.99;89.27;52309.50;5081236;28;19970;-76
2023/06/01 04:49:43;;;;;;;;;;;;;;;-144.99;89.16;52264.66;5082767;28;19929;-79
2023/06/01 04:52:12;;;;;;;;;;;;;;;-144.99;90.13;52283.00;5070799;28;19955;-78
2023/06/01 04:54:38;;;;;;;;;;;;;;;-144.99;89.66;52301.34;5081529;28;20409;-76
2023/06/01 04:57:07;;;;;;;;;;;;;;;-144.99;89.39;52289.13;5088225;28;19975;-77
2023/06/01 04:59:33;;;;;;;;;;;;;;;-144.99;89.56;52272.81;5082694;28;19928;-76
2023/06/01 05:02:00;;;;;;;;;;;;;;;-144.99;89.93;52268.72;5081434;28;20161;-80
2023/06/01 05:04:27;;;;;;;;;;;;;;;-144.99;89.39;52276.88;5086779;28;19932;-75
2023/06/01 05:06:54;;;;;;;;;;;;;;;-144.99;88.82;52293.19;5087633;28;19924;-75
2023/06/01 05:09:21;;;;;;;;;;;;;;;-144.99;88.60;52287.06;5084503;28;20027;-74
2023/06/01 05:11:47;;;;;;;;;;;;;;;-144.99;88.45;52270.78;5084450;28;19924;-73
2023/06/01 05:14:15;;;;;;;;;;;;;;;-144.99;88.23;52264.66;5083308;28;19925;-74
2023/06/01 05:16:42;;;;;;;;;;;;;;;-144.99;88.23;52276.88;5078971;28;19924;-75
2023/06/01 05:19:09;;;;;;;;;;;;;;;-144.99;88.78;52325.81;5086315;28;20011;-76
2023/06/01 05:21:36;;;;;;;;;;;;;;;-144.99;88.56;52346.19;5079932;28;20008;-73
2023/06/01 05:24:02;;;;;;;;;;;;;;;-144.99;88.86;52268.72;5086801;28;19950;-78
2023/06/01 05:26:30;;;;;;;;;;;;;;;-144.99;89.24;52240.19;5083958;28;20249;-76
2023/06/01 05:28:56;;;;;;;;;;;;;;;-144.99;89.09;52305.41;5081647;28;19924;-76
2023/06/01 05:31:24;;;;;;;;;;;;;;;-144.99;89.35;52297.25;5088829;28;19967;-75
2023/06/01 05:33:51;;;;;;;;;;;;;;;-144.99;88.96;52262.63;5090302;28;19928;-78
2023/06/01 05:36:20;;;;;;;;;;;;;;;-144.99;89.08;52268.72;5078987;28;20189;-75
2023/06/01 05:38:47;;;;;;;;;;;;;;;-144.99;89.33;52264.66;5087984;28;20256;-75
2023/06/01 05:41:14;;;;;;;;;;;;;;;-144.99;88.86;52264.66;5087376;28;20019;-75
2023/06/01 05:43:40;;;;;;;;;;;;;;;-144.99;88.76;52262.63;5073319;28;19971;-78
2023/06/01 05:46:07;;;;;;;;;;;;;;;-144.99;88.62;52301.34;5070720;28;19924;-77
2023/06/01 05:48:35;;;;;;;;;;;;;;;-144.99;88.33;52264.66;5088684;28;19928;-77
2023/06/01 05:51:02;;;;;;;;;;;;;;;-144.99;88.45;52301.34;5075809;28;19988;-76
2023/06/01 05:53:29;;;;;;;;;;;;;;;-144.99;88.73;52276.88;5077975;28;19924;-76
2023/06/01 05:55:56;;;;;;;;;;;;;;;-144.99;88.63;52256.50;5078247;28;19928;-75
2023/06/01 05:58:23;;;;;;;;;;;;;;;-144.99;88.68;52309.50;5078891;28;19948;-79
2023/06/01 06:00:50;;;;;;;;;;;;;;;-144.99;88.89;52315.59;5083581;28;19928;-79
2023/06/01 06:03:17;;;;;;;;;;;;;;;-144.99;88.58;52236.13;5082826;28;19924;-76
2023/06/01 06:05:45;;;;;;;;;;;;;;;-144.99;88.53;52285.03;5075511;28;19928;-74
2023/06/01 06:08:11;;;;;;;;;;;;;;;-144.99;88.25;52272.81;5078229;28;19985;-75
2023/06/01 06:10:38;;;;;;;;;;;;;;;-144.99;88.16;52285.03;5085314;28;19925;-78
2023/06/01 06:13:05;;;;;;;;;;;;;;;-144.99;88.29;52260.56;5082636;28;19964;-75
2023/06/01 06:15:31;;;;;;;;;;;;;;;-144.99;88.27;52289.13;5085397;28;19924;-77
2023/06/01 06:17:58;;;;;;;;;;;;;;;-144.99;88.30;52317.66;5089825;28;20030;-76
2023/06/01 06:20:25;;;;;;;;;;;;;;;-144.99;88.30;52285.03;5092439;28;20011;-75
2023/06/01 06:22:53;;;;;;;;;;;;;;;-144.99;87.71;52319.69;5087970;28;20284;-77
2023/06/01 06:25:20;;;;;;;;;;;;;;;-144.99;87.47;52325.81;5091606;28;20302;-75
2023/06/01 06:27:47;;;;;;;;;;;;;;;-144.99;88.46;52297.25;5093903;28;19998;-78
2023/06/01 06:30:14;;;;;;;;;;;;;;;-144.99;87.17;52276.88;5092112;28;19938;-77
2023/06/01 06:32:40;;;;;;;;;;;;;;;-144.99;86.65;52315.59;5103483;28;19971;-79
2023/06/01 06:35:07;;;;;;;;;;;;;;;-144.99;86.33;52276.88;5110138;28;19931;-80
2023/06/01 06:37:34;;;;;;;;;;;;;;;-144.99;86.08;52280.97;5109660;28;19978;-77
2023/06/01 06:40:03;;;;;;;;;;;;;;;-144.99;85.72;52280.97;5107713;28;19928;-80
2023/06/01 06:42:30;;;;;;;;;;;;;;;-144.99;85.86;52264.66;5104890;28;19928;-78
2023/06/01 06:44:57;;;;;;;;;;;;;;;-144.99;86.73;52301.34;5087008;28;20019;-76
2023/06/01 06:47:24;;;;;;;;;;;;;;;-144.99;86.72;52250.38;5095328;28;19954;-77
2023/06/01 06:49:51;;;;;;;;;;;;;;;-144.99;87.93;52285.03;5099515;28;19987;-77
2023/06/01 06:52:18;;;;;;;;;;;;;;;-144.99;86.75;52276.88;5093838;28;19962;-83
2023/06/01 06:54:45;;;;;;;;;;;;;;;-144.99;86.70;52307.47;5102206;28;19960;-80
2023/06/01 06:57:13;;;;;;;;;;;;;;;-144.99;86.99;52289.13;5109444;28;19932;-86
2023/06/01 06:59:40;;;;;;;;;;;;;;;-144.99;87.76;52301.34;5098956;28;19924;-86
2023/06/01 07:02:07;;;;;;;;;;;;;;;-144.99;87.98;52268.72;5092850;28;19993;-81
2023/06/01 07:04:34;;;;;;;;;;;;;;;-144.99;87.51;52305.41;5103556;28;19971;-84
2023/06/01 07:07:03;;;;;;;;;;;;;;;-144.99;87.63;52311.53;5098924;28;19962;-84
2023/06/01 07:09:30;;;;;;;;;;;;;;;-144.99;87.39;52260.56;5106187;28;19966;-88
2023/06/01 07:11:57;;;;;;;;;;;;;;;-144.99;87.11;52301.34;5098526;28;19929;-84
2023/06/01 07:14:25;;;;;;;;;;;;;;;-144.99;87.50;52317.66;5102889;28;19932;-85
2023/06/01 07:16:52;;;;;;;;;;;;;;;-144.99;86.88;52240.19;5106171;28;19912;-89
2023/06/01 07:19:19;;;;;;;;;;;;;;;-144.99;86.43;52256.50;5097391;28;19924;-88
2023/06/01 07:21:46;;;;;;;;;;;;;;;-144.99;87.76;52276.88;5101453;28;19913;-86
2023/06/01 07:24:13;;;;;;;;;;;;;;;-144.99;88.76;52321.72;5111272;28;19923;-86
2023/06/01 07:26:39;;;;;;;;;;;;;;;-144.99;88.31;52258.53;5104242;28;19928;-88
2023/06/01 07:29:06;;;;;;;;;;;;;;;-144.99;88.18;52268.72;5113522;28;19991;-82
2023/06/01 07:31:35;;;;;;;;;;;;;;;-144.99;86.33;52293.19;5111178;28;19926;-87
2023/06/01 07:34:02;;;;;;;;;;;;;;;-144.99;85.37;52297.25;5111674;28;19976;-85
2023/06/01 07:36:36;;;;;;;;;;;;;;;-144.99;85.04;52236.13;5096490;28;19939;-86
2023/06/01 07:39:05;;;;;;;;;;;;;;;-144.99;85.04;52240.19;5111297;28;19920;-86
2023/06/01 07:41:33;;;;;;;;;;;;;;;-144.99;84.91;52260.56;5110336;28;19995;-86
2023/06/01 07:44:00;;;;;;;;;;;;;;;-144.99;84.81;52244.28;5107801;28;19962;-88
2023/06/01 07:46:27;;;;;;;;;;;;;;;-144.99;84.79;52293.19;5105678;28;19995;-89
2023/06/01 07:48:56;;;;;;;;;;;;;;;-144.99;84.95;52240.19;5097617;28;19927;-86
2023/06/01 07:51:23;;;;;;;;;;;;;;;-144.99;84.90;52254.47;5108227;28;19918;-83
2023/06/01 07:53:50;;;;;;;;;;;;;;;-144.99;84.85;52268.72;5111481;28;19920;-88
2023/06/01 07:56:17;;;;;;;;;;;;;;;-144.99;85.70;52252.44;5110873;28;20034;-82
2023/06/01 07:58:44;;;;;;;;;;;;;;;-144.99;85.74;52297.25;5100506;28;19913;-87
2023/06/01 08:01:10;;;;;;;;;;;;;;;-144.99;85.73;52325.81;5099279;28;19932;-85
2023/06/01 08:03:37;;;;;;;;;;;;;;;-144.99;85.65;52264.66;5105062;28;19966;-83
2023/06/01 08:06:07;;;;;;;;;;;;;;;-144.99;86.30;52297.25;5096531;28;20023;-82
2023/06/01 08:08:34;;;;;;;;;;;;;;;-144.99;86.77;52285.03;5097723;28;20711;-83
2023/06/01 08:11:01;;;;;;;;;;;;;;;-144.99;86.59;52256.50;5100265;28;20490;-84
2023/06/01 08:13:28;;;;;;;;;;;;;;;-144.99;86.34;52248.34;5098242;28;20157;-86
2023/06/01 08:15:54;;;;;;;;;;;;;;;-144.99;85.92;52268.72;5110229;28;19912;-84
2023/06/01 08:18:21;;;;;;;;;;;;;;;-144.99;85.18;52223.88;5103512;28;19971;-83
2023/06/01 08:20:49;;;;;;;;;;;;;;;-144.99;85.26;52254.47;5108888;28;19912;-85
2023/06/01 08:23:17;;;;;;;;;;;;;;;-144.99;84.93;52270.78;5100246;28;19923;-88
2023/06/01 08:25:44;;;;;;;;;;;;;;;-144.99;84.43;52293.19;5105700;28;19920;-87
2023/06/01 08:28:11;;;;;;;;;;;;;;;-144.99;83.69;52276.88;5111722;28;19912;-85
2023/06/01 08:30:38;;;;;;;;;;;;;;;-144.99;82.94;52240.19;5102026;28;19912;-86
2023/06/01 08:33:05;;;;;;;;;;;;;;;-144.99;82.55;52280.97;5111021;28;20003;-86
2023/06/01 08:35:33;;;;;;;;;;;;;;;-144.99;83.31;52256.50;5116118;28;20021;-90
2023/06/01 08:38:00;;;;;;;;;;;;;;;-144.99;84.77;52256.50;5114405;28;20124;-88
2023/06/01 08:40:31;;;;;;;;;;;;;;;-144.99;85.56;52313.56;5108922;28;19938;-85
2023/06/01 08:43:00;;;;;;;;;;;;;;;-144.99;86.07;52270.78;5103233;28;19996;-84
2023/06/01 08:45:26;;;;;;;;;;;;;;;-144.99;86.71;52268.72;5108611;28;19968;-87
2023/06/01 08:47:54;;;;;;;;;;;;;;;-144.99;86.19;52268.72;5099935;28;19934;-85
2023/06/01 08:50:21;;;;;;;;;;;;;;;-144.99;85.58;52248.34;5113358;28;19952;-85
2023/06/01 08:52:48;;;;;;;;;;;;;;;-144.99;84.91;52278.91;5110051;28;19913;-87
2023/06/01 08:55:15;;;;;;;;;;;;;;;-144.99;84.46;52240.19;5111048;28;19912;-85
2023/06/01 08:57:44;;;;;;;;;;;;;;;-144.99;83.83;52248.34;5108036;28;19977;-84
2023/06/01 09:00:13;;;;;;;;;;;;;;;-144.99;83.40;52256.50;5113162;28;19913;-83
2023/06/01 09:02:42;;;;;;;;;;;;;;;-144.99;82.67;52317.66;5116356;28;19932;-87
2023/06/01 09:05:09;;;;;;;;;;;;;;;-144.99;82.52;52207.59;5098541;28;19947;-89
2023/06/01 09:07:38;;;;;;;;;;;;;;;-144.99;81.81;52260.56;5101881;28;19963;-85
2023/06/01 09:10:05;;;;;;;;;;;;;;;-144.99;81.79;52264.66;5098846;28;19958;-85
2023/06/01 09:12:33;;;;;;;;;;;;;;;-144.99;82.11;52270.78;5101939;28;20035;-81
2023/06/01 09:15:12;;;;;;;;;;;;;;;-144.99;82.18;52285.03;5105181;28;19928;-85
2023/06/01 09:17:39;;;;;;;;;;;;;;;-144.99;82.10;52252.44;5093860;28;19924;-81
2023/06/01 09:20:06;;;;;;;;;;;;;;;-144.99;81.72;52248.34;5091463;28;19996;-81
2023/06/01 09:22:39;;;;;;;;;;;;;;;-144.99;81.40;52246.31;5085377;28;20166;-79
2023/06/01 09:25:07;;;;;;;;;;;;;;;-144.99;80.60;52250.38;5081861;28;20414;-81
2023/06/01 09:27:43;;;;;;;;;;;;;;;-144.99;80.00;52219.81;5083117;28;19925;-83
2023/06/01 09:30:12;;;;;;;;;;;;;;;-144.99;80.08;52240.19;5092715;28;20068;-82
2023/06/01 09:32:39;;;;;;;;;;;;;;;-144.99;79.53;52293.19;5095972;28;19924;-83
2023/06/01 09:35:07;;;;;;;;;;;;;;;-144.99;79.58;52203.50;5098809;28;19928;-83
2023/06/01 09:37:34;;;;;;;;;;;;;;;-144.99;79.27;52276.88;5098710;28;19950;-82
2023/06/01 09:40:01;;;;;;;;;;;;;;;-144.99;79.05;52280.97;5091198;28;20291;-81
2023/06/01 09:42:34;;;;;;;;;;;;;;;-144.99;79.33;52244.28;5098162;28;20031;-81
2023/06/01 09:45:17;;;;;;;;;;;;;;;-144.99;80.15;52252.44;5090911;28;19944;-81
2023/06/01 09:47:44;;;;;;;;;;;;;;;-144.99;80.54;52264.66;5093959;28;19928;-82
2023/06/01 09:50:11;;;;;;;;;;;;;;;-144.99;80.70;52297.25;5094265;28;19924;-83
2023/06/01 09:52:38;;;;;;;;;;;;;;;-144.99;80.67;52248.34;5100766;28;19924;-82
2023/06/01 09:55:10;;;;;;;;;;;;;;;-144.99;80.60;52240.19;5096699;28;19934;-83
2023/06/01 09:57:37;;;;;;;;;;;;;;;-144.99;80.08;52227.97;5094025;28;19960;-82
2023/06/01 10:00:05;;;;;;;;;;;;;;;-144.99;80.40;52252.44;5083787;28;19939;-82
2023/06/01 10:02:34;;;;;;;;;;;;;;;-144.99;80.25;52264.66;5103080;28;19912;-84
2023/06/01 10:05:01;;;;;;;;;;;;;;;-144.99;80.30;52289.13;5094372;28;19938;-82
2023/06/01 10:07:29;;;;;;;;;;;;;;;-144.99;80.70;52236.13;5088628;28;20379;-81
2023/06/01 10:09:58;;;;;;;;;;;;;;;-144.99;80.66;52232.03;5093076;28;19931;-83
2023/06/01 10:12:25;;;;;;;;;;;;;;;-144.99;80.77;52264.66;5090428;28;19936;-86
2023/06/01 10:14:52;;;;;;;;;;;;;;;-144.99;80.35;52252.44;5081656;28;19912;-79
2023/06/01 10:17:20;;;;;;;;;;;;;;;-144.99;80.39;52227.97;5105992;28;19924;-84
2023/06/01 10:19:48;;;;;;;;;;;;;;;-144.99;78.58;52215.75;5085038;28;20014;-81
2023/06/01 10:22:16;;;;;;;;;;;;;;;-144.99;78.70;52236.13;5086821;28;19924;-84
2023/06/01 10:24:43;;;;;;;;;;;;;;;-144.99;78.81;52250.38;5093067;28;20414;-84
2023/06/01 10:27:19;;;;;;;;;;;;;;;-144.99;80.15;52268.72;5090763;28;19930;-84
2023/06/01 10:29:46;;;;;;;;;;;;;;;-144.99;79.72;52297.25;5087110;28;20516;-83
2023/06/01 10:32:31;;;;;;;;;;;;;;;-144.99;81.31;52242.22;5080372;28;19960;-80
2023/06/01 10:34:59;;;;;;;;;;;;;;;-144.99;80.42;52256.50;5083575;28;20031;-80
2023/06/01 10:37:26;;;;;;;;;;;;;;;-144.99;79.87;52268.72;5085697;28;19978;-78
2023/06/01 10:39:53;;;;;;;;;;;;;;;-144.99;79.87;52283.00;5093004;28;19944;-83
2023/06/01 10:42:40;;;;;;;;;;;;;;;-144.99;79.72;52256.50;5094214;28;19924;-80
2023/06/01 10:45:08;;;;;;;;;;;;;;;-144.99;79.83;52248.34;5085518;28;20446;-83
2023/06/01 10:47:48;;;;;;;;;;;;;;;-144.99;80.48;52268.72;5078300;28;19931;-75
2023/06/01 10:50:22;;;;;;;;;;;;;;;-144.99;80.76;52276.88;5083076;28;20172;-74
2023/06/01 10:52:48;;;;;;;;;;;;;;;-144.99;82.47;52244.28;5086993;28;20048;-76
2023/06/01 10:55:22;;;;;;;;;;;;;;;-144.99;81.74;52260.56;5084600;28;19939;-81
2023/06/01 10:57:49;;;;;;;;;;;;;;;-144.99;81.59;52268.72;5087621;28;20354;-80
2023/06/01 11:00:16;;;;;;;;;;;;;;;-144.99;80.25;52268.72;5089799;28;19927;-86
2023/06/01 11:02:44;;;;;;;;;;;;;;;-144.99;80.73;52236.13;5086983;28;19928;-83
2023/06/01 11:05:29;;;;;;;;;;;;;;;-144.99;80.30;52244.28;5095892;28;19924;-82
2023/06/01 11:07:57;;;;;;;;;;;;;;;-144.99;79.87;52248.34;5085372;28;19959;-83
2023/06/01 11:10:43;;;;;;;;;;;;;;;-144.99;79.64;52293.19;5093695;28;19985;-83
2023/06/01 11:13:14;;;;;;;;;;;;;;;-144.99;79.76;52238.16;5095278;28;19980;-80
2023/06/01 11:15:41;;;;;;;;;;;;;;;-144.99;80.19;52240.19;5095735;28;19924;-83
2023/06/01 11:18:26;;;;;;;;;;;;;;;-144.99;81.00;52285.03;5097284;28;19928;-81
2023/06/01 11:20:54;;;;;;;;;;;;;;;-144.99;82.13;52283.00;5090822;28;19935;-80
2023/06/01 11:23:22;;;;;;;;;;;;;;;-144.99;82.65;52280.97;5090000;28;19933;-88
2023/06/01 11:25:50;;;;;;;;;;;;;;;-144.99;82.57;52289.13;5089302;28;19972;-85
2023/06/01 11:28:20;;;;;;;;;;;;;;;-144.99;82.95;52256.50;5086854;28;19929;-81
2023/06/01 11:30:47;;;;;;;;;;;;;;;-144.99;80.92;52258.53;5093027;28;19972;-85
2023/06/01 11:33:14;;;;;;;;;;;;;;;-144.99;79.37;52248.34;5094959;28;19999;-84
2023/06/01 11:35:41;;;;;;;;;;;;;;;-144.99;78.47;52244.28;5093186;28;19930;-86
2023/06/01 11:38:07;;;;;;;;;;;;;;;-144.99;77.78;52246.31;5091604;28;19928;-81
2023/06/01 11:40:36;;;;;;;;;;;;;;;-144.99;77.27;52199.44;5097334;28;19966;-82
2023/06/01 11:43:03;;;;;;;;;;;;;;;-144.99;76.93;52236.13;5101028;28;19923;-84
2023/06/01 11:45:30;;;;;;;;;;;;;;;-144.99;77.22;52252.44;5094528;28;19935;-82
2023/06/01 11:47:57;;;;;;;;;;;;;;;-144.99;77.53;52248.34;5096752;28;20503;-82
2023/06/01 11:50:26;;;;;;;;;;;;;;;-144.99;76.94;52199.44;5097990;28;20026;-83
2023/06/01 11:52:53;;;;;;;;;;;;;;;-144.99;76.52;52219.81;5094966;28;20143;-88
2023/06/01 11:55:20;;;;;;;;;;;;;;;-144.99;76.47;52244.28;5109712;28;19957;-88
2023/06/01 11:57:48;;;;;;;;;;;;;;;-144.99;77.14;52260.56;5094367;28;19959;-81
2023/06/01 12:00:15;;;;;;;;;;;;;;;-144.99;76.85;52270.78;5100740;28;19955;-84
2023/06/01 12:02:43;;;;;;;;;;;;;;;-144.99;76.91;52236.13;5102822;28;19984;-89
2023/06/01 12:05:10;;;;;;;;;;;;;;;-144.99;77.44;52207.59;5099757;28;19924;-91
2023/06/01 12:07:47;;;;;;;;;;;;;;;-144.99;77.81;52236.13;5114576;28;20188;-87
2023/06/01 12:10:15;;;;;;;;;;;;;;;-144.99;78.37;52264.66;5104869;28;19924;-86
2023/06/01 12:12:42;;;;;;;;;;;;;;;-144.99;77.78;52244.28;5095421;28;20413;-84
2023/06/01 12:15:12;;;;;;;;;;;;;;;-144.99;77.28;52219.81;5091773;28;19943;-82
2023/06/01 12:17:49;;;;;;;;;;;;;;;-144.99;76.59;52162.75;5090650;28;19928;-87
2023/06/01 12:20:26;;;;;;;;;;;;;;;-144.99;76.79;52203.50;5096139;28;19944;-84
2023/06/01 12:22:55;;;;;;;;;;;;;;;-144.99;75.64;52199.44;5095592;28;19924;-82
2023/06/01 12:25:21;;;;;;;;;;;;;;;-144.99;74.85;52209.63;5085005;28;19924;-82
2023/06/01 12:28:00;;;;;;;;;;;;;;;-144.99;74.71;52138.28;5089562;28;19951;-79
2023/06/01 12:30:28;;;;;;;;;;;;;;;-144.99;74.80;52203.50;5080310;28;19925;-82
2023/06/01 12:32:55;;;;;;;;;;;;;;;-144.99;74.46;52215.75;5096614;28;19928;-87